createdAt,value
2023-09-29T00:00:06.314Z,22.91
2023-09-29T00:02:52.467Z,22.73
2023-09-29T00:05:38.376Z,22.64
2023-09-29T00:08:24.333Z,22.46
2023-09-29T00:11:10.450Z,22.43
2023-09-29T00:13:56.235Z,22.41
2023-09-29T00:16:42.198Z,22.38
2023-09-29T00:19:28.075Z,22.40
2023-09-29T00:22:14.070Z,22.38
2023-09-29T00:25:00.193Z,22.41
2023-09-29T00:27:46.140Z,22.40
2023-09-29T00:30:32.221Z,22.34
2023-09-29T00:33:18.163Z,22.37
2023-09-29T00:36:06.210Z,22.29
2023-09-29T00:38:51.962Z,22.25
2023-09-29T00:41:38.080Z,22.17
2023-09-29T00:44:24.123Z,22.12
2023-09-29T00:47:10.076Z,22.13
2023-09-29T00:49:58.097Z,22.07
2023-09-29T00:52:44.092Z,22.14
2023-09-29T00:55:30.079Z,22.07
2023-09-29T00:58:15.962Z,22.03
2023-09-29T01:01:01.985Z,22.11
2023-09-29T01:03:48.385Z,22.19
2023-09-29T01:06:34.605Z,22.19
2023-09-29T01:09:20.684Z,22.13
2023-09-29T01:12:06.685Z,22.18
2023-09-29T01:14:52.591Z,22.17
2023-09-29T01:17:38.766Z,22.13
2023-09-29T01:20:24.726Z,22.17
2023-09-29T01:23:10.750Z,22.12
2023-09-29T01:25:56.798Z,22.14
2023-09-29T01:28:42.705Z,22.16
2023-09-29T01:31:28.694Z,22.14
2023-09-29T01:34:14.841Z,22.15
2023-09-29T01:37:00.796Z,22.15
2023-09-29T01:39:46.937Z,22.16
2023-09-29T01:42:32.819Z,22.09
2023-09-29T01:45:18.727Z,22.14
2023-09-29T01:48:05.067Z,22.15
2023-09-29T01:50:51.406Z,22.19
2023-09-29T01:53:37.225Z,22.19
2023-09-29T01:56:23.291Z,22.30
2023-09-29T01:59:09.246Z,22.43
2023-09-29T02:01:55.151Z,22.55
2023-09-29T02:04:41.073Z,22.58
2023-09-29T02:07:29.112Z,22.71
2023-09-29T02:10:15.106Z,22.74
2023-09-29T02:13:01.065Z,22.80
2023-09-29T02:15:46.977Z,22.75
2023-09-29T02:18:33.028Z,22.63
2023-09-29T02:21:19.361Z,22.53
2023-09-29T02:24:05.342Z,22.46
2023-09-29T02:26:51.357Z,22.39
2023-09-29T02:29:37.312Z,22.11
2023-09-29T02:32:23.131Z,21.60
2023-09-29T02:35:09.001Z,21.06
2023-09-29T02:37:54.923Z,20.59
2023-09-29T02:40:40.882Z,20.50
2023-09-29T02:43:26.875Z,20.56
2023-09-29T02:46:12.832Z,20.78
2023-09-29T02:48:58.871Z,21.02
2023-09-29T02:51:44.668Z,21.30
2023-09-29T02:54:30.646Z,21.44
2023-09-29T02:57:16.676Z,21.59
2023-09-29T03:00:02.987Z,21.72
2023-09-29T03:02:49.268Z,21.83
2023-09-29T03:05:35.504Z,21.78
2023-09-29T03:08:21.512Z,21.72
2023-09-29T03:11:07.617Z,21.70
2023-09-29T03:13:53.559Z,21.76
2023-09-29T03:16:39.691Z,21.56
2023-09-29T03:19:27.701Z,21.41
2023-09-29T03:22:15.567Z,21.31
2023-09-29T03:25:01.487Z,21.18
2023-09-29T03:27:47.554Z,21.22
2023-09-29T03:30:33.449Z,21.33
2023-09-29T03:33:19.576Z,21.46
2023-09-29T03:36:05.608Z,21.55
2023-09-29T03:38:51.831Z,21.70
2023-09-29T03:41:37.824Z,21.89
2023-09-29T03:44:25.840Z,22.06
2023-09-29T03:47:11.876Z,22.17
2023-09-29T03:49:57.826Z,22.19
2023-09-29T03:52:43.876Z,22.32
2023-09-29T03:55:30.131Z,22.35
2023-09-29T03:58:16.202Z,22.41
2023-09-29T04:01:02.195Z,22.47
2023-09-29T04:03:48.218Z,22.57
2023-09-29T04:06:34.559Z,22.62
2023-09-29T04:09:20.943Z,22.62
2023-09-29T04:12:06.843Z,22.58
2023-09-29T04:15:13.171Z,22.71
2023-09-29T04:17:59.142Z,22.85
2023-09-29T04:20:45.039Z,22.86
2023-09-29T04:23:31.116Z,22.91
2023-09-29T04:26:17.191Z,22.92
2023-09-29T04:29:04.725Z,22.97
2023-09-29T04:31:51.169Z,22.88
2023-09-29T04:34:37.093Z,22.91
2023-09-29T04:37:23.142Z,22.92
2023-09-29T04:40:09.180Z,22.87
2023-09-29T04:42:55.047Z,22.91
2023-09-29T04:45:41.065Z,22.89
2023-09-29T04:48:27.025Z,22.90
2023-09-29T04:51:15.619Z,22.88
2023-09-29T04:54:01.714Z,22.87
2023-09-29T04:56:47.796Z,22.93
2023-09-29T04:59:33.843Z,22.90
2023-09-29T05:02:19.978Z,22.94
2023-09-29T05:05:05.897Z,22.96
2023-09-29T05:07:51.833Z,22.98
2023-09-29T05:10:37.882Z,23.01
2023-09-29T05:13:23.786Z,23.01
2023-09-29T05:16:09.885Z,22.99
2023-09-29T05:18:56.294Z,22.82
2023-09-29T05:21:42.764Z,22.84
2023-09-29T05:24:28.781Z,22.84
2023-09-29T05:27:14.774Z,22.93
2023-09-29T05:30:00.845Z,22.83
2023-09-29T05:32:47.041Z,22.94
2023-09-29T05:35:33.207Z,22.87
2023-09-29T05:38:19.218Z,22.67
2023-09-29T05:41:05.088Z,22.76
2023-09-29T05:43:51.001Z,23.10
2023-09-29T05:46:37.978Z,22.48
2023-09-29T05:49:23.969Z,22.49
2023-09-29T05:52:09.918Z,22.47
2023-09-29T05:54:55.878Z,22.45
2023-09-29T05:57:41.700Z,22.69
2023-09-29T06:00:29.714Z,22.90
2023-09-29T06:03:15.877Z,22.95
2023-09-29T06:06:01.889Z,22.54
2023-09-29T06:08:54.531Z,22.59
2023-09-29T06:11:41.320Z,22.73
2023-09-29T06:14:27.290Z,22.68
2023-09-29T06:17:13.152Z,22.81
2023-09-29T06:19:59.086Z,22.77
2023-09-29T06:22:45.154Z,23.08
2023-09-29T06:25:31.027Z,23.19
2023-09-29T06:28:16.954Z,23.30
2023-09-29T06:31:02.896Z,23.19
2023-09-29T06:33:49.030Z,23.03
2023-09-29T06:36:35.334Z,22.94
2023-09-29T06:39:21.318Z,22.80
2023-09-29T06:42:07.327Z,22.87
2023-09-29T06:44:53.496Z,22.95
2023-09-29T06:47:39.603Z,22.96
2023-09-29T06:50:25.895Z,22.83
2023-09-29T06:53:11.773Z,22.69
2023-09-29T06:55:57.725Z,22.59
2023-09-29T06:58:43.872Z,22.49
2023-09-29T07:01:29.800Z,21.76
2023-09-29T07:04:15.940Z,21.08
2023-09-29T07:07:02.278Z,21.35
2023-09-29T07:09:48.160Z,21.19
2023-09-29T07:12:38.547Z,21.29
2023-09-29T07:15:24.802Z,21.14
2023-09-29T07:18:12.986Z,20.97
2023-09-29T07:20:58.950Z,20.86
2023-09-29T07:23:45.090Z,20.82
2023-09-29T07:26:30.973Z,20.88
2023-09-29T07:29:17.036Z,20.89
2023-09-29T07:32:03.140Z,21.19
2023-09-29T07:34:49.108Z,20.95
2023-09-29T07:37:37.113Z,21.25
2023-09-29T07:40:23.071Z,21.38
2023-09-29T07:43:08.850Z,21.57
2023-09-29T07:45:54.768Z,21.40
2023-09-29T07:48:40.861Z,21.21
2023-09-29T07:51:26.902Z,20.94
2023-09-29T07:54:12.980Z,21.05
2023-09-29T07:56:58.814Z,21.06
2023-09-29T07:59:44.841Z,21.07
2023-09-29T08:02:30.849Z,20.85
2023-09-29T08:05:16.738Z,20.57
2023-09-29T08:08:02.652Z,20.59
2023-09-29T08:10:48.579Z,20.54
2023-09-29T08:13:34.481Z,20.91
2023-09-29T08:16:20.545Z,20.67
2023-09-29T08:19:06.510Z,20.99
2023-09-29T08:21:52.387Z,20.98
2023-09-29T08:24:38.460Z,20.69
2023-09-29T08:27:24.297Z,21.24
2023-09-29T08:30:10.324Z,21.46
2023-09-29T08:33:10.735Z,21.46
2023-09-29T08:36:02.792Z,21.59
2023-09-29T08:38:48.887Z,21.44
2023-09-29T08:41:36.954Z,21.51
2023-09-29T08:44:22.913Z,21.34
2023-09-29T08:47:09.040Z,22.11
2023-09-29T08:49:54.939Z,21.35
2023-09-29T08:52:40.926Z,21.34
2023-09-29T08:55:27.130Z,21.60
2023-09-29T08:58:13.165Z,21.88
2023-09-29T09:00:59.194Z,21.71
2023-09-29T09:03:45.227Z,21.47
2023-09-29T09:06:35.556Z,21.29
2023-09-29T09:09:21.365Z,21.26
2023-09-29T09:12:07.387Z,21.68
2023-09-29T09:14:53.438Z,21.53
2023-09-29T09:17:39.507Z,22.37
2023-09-29T09:20:25.517Z,22.89
2023-09-29T09:23:11.399Z,22.68
2023-09-29T09:25:57.382Z,22.46
2023-09-29T09:28:43.376Z,22.45
2023-09-29T09:31:29.231Z,22.55
2023-09-29T09:34:15.534Z,22.40
2023-09-29T09:37:01.590Z,22.82
2023-09-29T09:39:47.533Z,23.10
2023-09-29T09:42:33.564Z,22.54
2023-09-29T09:45:19.480Z,22.70
2023-09-29T09:48:07.114Z,23.16
2023-09-29T09:50:56.770Z,22.81
2023-09-29T09:53:43.334Z,22.81
2023-09-29T09:56:30.704Z,23.06
2023-09-29T09:59:16.768Z,22.37
2023-09-29T10:02:02.906Z,22.44
2023-09-29T10:04:48.891Z,22.54
2023-09-29T10:07:35.004Z,22.04
2023-09-29T10:10:20.960Z,21.86
2023-09-29T10:13:06.964Z,22.15
2023-09-29T10:15:52.881Z,22.03
2023-09-29T10:18:38.974Z,22.42
2023-09-29T10:21:24.929Z,22.52
2023-09-29T10:24:10.912Z,22.10
2023-09-29T10:26:56.897Z,22.71
2023-09-29T10:29:42.947Z,22.51
2023-09-29T10:32:28.899Z,22.97
2023-09-29T10:35:14.796Z,22.77
2023-09-29T10:38:00.743Z,22.82
2023-09-29T10:40:46.616Z,22.68
2023-09-29T10:43:32.691Z,22.97
2023-09-29T10:46:18.564Z,22.65
2023-09-29T10:49:04.535Z,22.85
2023-09-29T10:51:51.028Z,23.01
2023-09-29T10:54:37.288Z,22.74
2023-09-29T10:57:23.197Z,22.83
2023-09-29T11:00:09.176Z,22.62
2023-09-29T11:02:55.101Z,22.71
2023-09-29T11:05:40.958Z,22.98
2023-09-29T11:08:26.913Z,23.15
2023-09-29T11:11:12.739Z,23.29
2023-09-29T11:14:00.743Z,23.16
2023-09-29T11:16:48.655Z,23.66
2023-09-29T11:19:34.557Z,23.27
2023-09-29T11:22:22.465Z,23.44
2023-09-29T11:25:08.347Z,23.27
2023-09-29T11:27:54.242Z,23.45
2023-09-29T11:30:40.199Z,22.99
2023-09-29T11:33:26.199Z,23.35
2023-09-29T11:36:12.258Z,23.36
2023-09-29T11:38:58.428Z,23.29
2023-09-29T11:41:44.642Z,23.02
2023-09-29T11:44:30.468Z,23.30
2023-09-29T11:47:16.447Z,23.79
2023-09-29T11:50:02.497Z,23.28
2023-09-29T11:52:48.389Z,23.71
2023-09-29T11:55:34.372Z,23.56
2023-09-29T11:58:20.248Z,23.74
2023-09-29T12:01:06.180Z,23.76
2023-09-29T12:03:52.107Z,23.62
2023-09-29T12:06:38.103Z,23.59
2023-09-29T12:09:26.189Z,23.81
2023-09-29T12:12:12.204Z,23.71
2023-09-29T12:14:58.170Z,23.68
2023-09-29T12:17:44.215Z,23.88
2023-09-29T12:20:30.151Z,23.64
2023-09-29T12:23:16.126Z,23.83
2023-09-29T12:26:03.673Z,23.79
2023-09-29T12:28:49.997Z,23.61
2023-09-29T12:31:35.878Z,23.72
2023-09-29T12:34:21.832Z,23.40
2023-09-29T12:37:07.677Z,23.76
2023-09-29T12:39:53.780Z,24.06
2023-09-29T12:42:39.711Z,24.02
2023-09-29T12:45:25.769Z,24.16
2023-09-29T12:48:11.788Z,24.15
2023-09-29T12:50:57.707Z,24.20
2023-09-29T12:53:43.621Z,24.80
2023-09-29T12:56:29.606Z,24.98
2023-09-29T12:59:18.782Z,24.56
2023-09-29T13:02:04.721Z,24.60
2023-09-29T13:04:50.830Z,24.25
2023-09-29T13:07:36.661Z,24.46
2023-09-29T13:10:22.600Z,24.52
2023-09-29T13:13:08.563Z,24.79
2023-09-29T13:15:54.544Z,24.84
2023-09-29T13:18:40.783Z,25.05
2023-09-29T13:21:27.004Z,24.80
2023-09-29T13:24:13.135Z,24.78
2023-09-29T13:26:59.058Z,24.62
2023-09-29T13:29:45.098Z,24.87
2023-09-29T13:32:31.125Z,24.91
2023-09-29T13:35:17.205Z,24.49
2023-09-29T13:38:05.080Z,24.67
2023-09-29T13:40:50.995Z,24.80
2023-09-29T13:43:37.190Z,24.58
2023-09-29T13:46:23.184Z,24.75
2023-09-29T13:49:09.095Z,24.50
2023-09-29T13:51:55.088Z,24.86
2023-09-29T13:54:41.103Z,24.97
2023-09-29T13:57:27.164Z,25.37
2023-09-29T14:00:13.154Z,24.88
2023-09-29T14:02:59.099Z,24.95
2023-09-29T14:05:45.148Z,25.07
2023-09-29T14:08:31.549Z,24.96
2023-09-29T14:11:17.443Z,25.21
2023-09-29T14:14:03.464Z,25.24
2023-09-29T14:16:49.506Z,25.63
2023-09-29T14:19:37.430Z,26.22
2023-09-29T14:22:23.404Z,25.52
2023-09-29T14:25:09.356Z,25.35
2023-09-29T14:27:55.348Z,25.55
2023-09-29T14:30:41.239Z,25.42
2023-09-29T14:33:27.308Z,25.00
2023-09-29T14:36:13.511Z,24.53
2023-09-29T14:38:59.790Z,24.88
2023-09-29T14:41:45.944Z,25.04
2023-09-29T14:44:31.920Z,25.35
2023-09-29T14:47:17.787Z,25.67
2023-09-29T14:50:03.822Z,25.11
2023-09-29T14:52:49.670Z,25.67
2023-09-29T14:55:35.623Z,25.30
2023-09-29T14:58:21.562Z,25.55
2023-09-29T15:01:07.481Z,25.12
2023-09-29T15:03:53.731Z,23.69
2023-09-29T15:06:42.057Z,23.72
2023-09-29T15:09:28.083Z,24.07
2023-09-29T15:12:14.103Z,23.28
2023-09-29T15:15:00.267Z,23.04
2023-09-29T15:17:46.202Z,23.37
2023-09-29T15:20:32.202Z,22.54
2023-09-29T15:23:18.015Z,23.20
2023-09-29T15:26:03.986Z,22.66
2023-09-29T15:28:50.008Z,22.84
2023-09-29T15:31:35.923Z,22.80
2023-09-29T15:34:23.418Z,23.10
2023-09-29T15:37:09.453Z,23.18
2023-09-29T15:39:55.409Z,23.10
2023-09-29T15:42:41.380Z,22.55
2023-09-29T15:45:27.280Z,23.49
2023-09-29T15:48:13.319Z,23.76
2023-09-29T15:50:59.528Z,23.50
2023-09-29T15:53:45.447Z,23.37
2023-09-29T15:56:31.428Z,22.90
2023-09-29T15:59:17.348Z,23.61
2023-09-29T16:02:11.886Z,23.69
2023-09-29T16:05:06.407Z,23.91
2023-09-29T16:07:52.547Z,24.75
2023-09-29T16:10:38.414Z,24.95
2023-09-29T16:13:24.260Z,25.30
2023-09-29T16:16:10.200Z,24.83
2023-09-29T16:18:56.242Z,25.01
2023-09-29T16:21:42.303Z,25.51
2023-09-29T16:24:28.142Z,25.05
2023-09-29T16:27:14.172Z,25.35
2023-09-29T16:30:00.103Z,24.66
2023-09-29T16:32:46.460Z,25.10
2023-09-29T16:35:37.279Z,24.84
2023-09-29T16:38:23.577Z,24.53
2023-09-29T16:41:09.359Z,24.34
2023-09-29T16:43:55.474Z,24.18
2023-09-29T16:46:41.758Z,24.40
2023-09-29T16:49:27.538Z,24.44
2023-09-29T16:52:13.406Z,23.55
2023-09-29T16:54:59.235Z,23.72
2023-09-29T16:57:45.093Z,24.57
2023-09-29T17:00:31.135Z,24.46
2023-09-29T17:03:17.115Z,24.11
2023-09-29T17:06:03.115Z,24.58
2023-09-29T17:08:49.146Z,24.18
2023-09-29T17:11:35.146Z,24.23
2023-09-29T17:14:23.180Z,24.73
2023-09-29T17:17:09.188Z,24.09
2023-09-29T17:19:55.105Z,24.23
2023-09-29T17:22:41.096Z,24.48
2023-09-29T17:25:27.002Z,24.85
2023-09-29T17:28:12.874Z,24.99
2023-09-29T17:30:58.891Z,24.83
2023-09-29T17:33:44.794Z,24.21
2023-09-29T17:36:30.924Z,23.16
2023-09-29T17:39:16.967Z,21.06
2023-09-29T17:42:03.024Z,21.60
2023-09-29T17:44:49.059Z,21.34
2023-09-29T17:47:37.203Z,21.67
2023-09-29T17:50:23.006Z,22.26
2023-09-29T17:53:08.984Z,22.62
2023-09-29T17:55:54.887Z,21.20
2023-09-29T17:58:40.872Z,21.16
2023-09-29T18:01:26.760Z,20.45
2023-09-29T18:04:12.743Z,20.03
2023-09-29T18:06:59.142Z,20.21
2023-09-29T18:09:47.140Z,20.00
2023-09-29T18:12:33.083Z,20.92
2023-09-29T18:15:19.114Z,20.92
2023-09-29T18:18:05.098Z,21.76
2023-09-29T18:20:50.974Z,21.49
2023-09-29T18:23:36.851Z,20.49
2023-09-29T18:26:22.941Z,20.33
2023-09-29T18:29:10.241Z,19.95
2023-09-29T18:31:56.425Z,20.65
2023-09-29T18:34:42.252Z,21.38
2023-09-29T18:37:28.111Z,21.15
2023-09-29T18:40:14.151Z,21.22
2023-09-29T18:43:00.078Z,21.40
2023-09-29T18:45:46.097Z,21.47
2023-09-29T18:48:51.759Z,21.56
2023-09-29T18:51:37.731Z,21.46
2023-09-29T18:54:23.807Z,21.35
2023-09-29T18:57:09.798Z,21.13
2023-09-29T18:59:55.627Z,21.53
2023-09-29T19:02:41.592Z,21.82
2023-09-29T19:05:27.652Z,22.03
2023-09-29T19:08:13.506Z,22.20
2023-09-29T19:11:18.463Z,21.97
2023-09-29T19:14:25.443Z,21.40
2023-09-29T19:17:30.496Z,20.64
2023-09-29T19:20:19.530Z,20.48
2023-09-29T19:23:05.413Z,20.09
2023-09-29T19:25:51.375Z,20.14
2023-09-29T19:28:37.354Z,20.65
2023-09-29T19:31:23.219Z,20.81
2023-09-29T19:34:09.328Z,21.37
2023-09-29T19:36:55.216Z,22.07
2023-09-29T19:39:41.250Z,22.18
2023-09-29T19:42:27.478Z,22.57
2023-09-29T19:45:13.399Z,21.80
2023-09-29T19:47:59.416Z,22.00
2023-09-29T19:50:45.506Z,22.23
2023-09-29T19:53:31.468Z,22.71
2023-09-29T19:56:17.402Z,22.72
2023-09-29T19:59:03.350Z,23.05
2023-09-29T20:01:49.330Z,22.68
2023-09-29T20:04:35.471Z,22.18
2023-09-29T20:07:21.404Z,21.67
2023-09-29T20:10:07.398Z,22.03
2023-09-29T20:12:53.280Z,22.52
2023-09-29T20:15:39.297Z,22.83
2023-09-29T20:18:25.338Z,23.10
2023-09-29T20:21:11.314Z,23.74
2023-09-29T20:23:57.553Z,23.78
2023-09-29T20:26:43.979Z,23.72
2023-09-29T20:29:29.836Z,23.61
2023-09-29T20:32:15.865Z,23.68
2023-09-29T20:35:01.730Z,23.53
2023-09-29T20:37:47.585Z,23.14
2023-09-29T20:40:33.494Z,22.88
2023-09-29T20:43:19.457Z,22.20
2023-09-29T20:46:05.468Z,21.57
2023-09-29T20:48:51.336Z,21.56
2023-09-29T20:51:37.237Z,22.02
2023-09-29T20:54:23.220Z,22.28
2023-09-29T20:57:09.316Z,22.27
2023-09-29T20:59:55.616Z,21.92
2023-09-29T21:02:43.838Z,21.45
2023-09-29T21:05:29.913Z,21.90
2023-09-29T21:08:15.889Z,22.22
2023-09-29T21:11:01.767Z,22.28
2023-09-29T21:13:47.699Z,22.51
2023-09-29T21:16:33.678Z,21.69
2023-09-29T21:19:19.570Z,21.39
2023-09-29T21:22:05.362Z,21.36
2023-09-29T21:24:51.575Z,21.81
2023-09-29T21:27:38.021Z,22.16
2023-09-29T21:30:23.940Z,22.38
2023-09-29T21:33:09.986Z,22.44
2023-09-29T21:35:56.160Z,22.31
2023-09-29T21:38:42.101Z,22.37
2023-09-29T21:41:28.081Z,22.41
2023-09-29T21:44:13.966Z,22.74
2023-09-29T21:46:59.990Z,23.05
2023-09-29T21:49:45.967Z,23.24
2023-09-29T21:52:31.766Z,23.23
2023-09-29T21:55:17.713Z,23.15
2023-09-29T21:58:04.922Z,23.09
2023-09-29T22:00:51.257Z,23.10
2023-09-29T22:03:37.455Z,23.03
2023-09-29T22:06:23.555Z,23.04
2023-09-29T22:09:09.699Z,23.10
2023-09-29T22:11:55.709Z,23.19
2023-09-29T22:14:41.565Z,23.38
2023-09-29T22:17:29.431Z,23.59
2023-09-29T22:20:15.410Z,23.80
2023-09-29T22:23:01.307Z,23.85
2023-09-29T22:25:47.291Z,23.83
2023-09-29T22:28:33.195Z,23.84
2023-09-29T22:31:19.260Z,23.85
2023-09-29T22:34:05.368Z,23.97
2023-09-29T22:36:51.269Z,24.07
2023-09-29T22:39:46.643Z,24.00
2023-09-29T22:42:33.379Z,23.92
2023-09-29T22:45:19.473Z,23.71
2023-09-29T22:48:05.594Z,23.52
2023-09-29T22:50:51.736Z,23.36
2023-09-29T22:53:37.773Z,23.13
2023-09-29T22:56:23.611Z,22.97
2023-09-29T22:59:09.600Z,22.75
2023-09-29T23:01:55.725Z,22.58
2023-09-29T23:04:41.637Z,22.29
2023-09-29T23:07:27.622Z,22.07
2023-09-29T23:10:13.569Z,21.88
2023-09-29T23:12:59.604Z,21.67
2023-09-29T23:15:45.853Z,21.46
2023-09-29T23:18:31.829Z,21.36
2023-09-29T23:21:17.989Z,21.06
2023-09-29T23:24:04.324Z,20.86
2023-09-29T23:26:50.141Z,20.95
2023-09-29T23:29:36.072Z,21.02
2023-09-29T23:32:22.193Z,21.09
2023-09-29T23:35:10.089Z,20.98
2023-09-29T23:37:56.035Z,20.96
2023-09-29T23:40:41.814Z,20.93
2023-09-29T23:43:27.777Z,20.95
2023-09-29T23:46:13.668Z,20.84
2023-09-29T23:48:59.661Z,20.83
2023-09-29T23:51:45.666Z,20.82
2023-09-29T23:54:32.072Z,20.83
2023-09-29T23:57:18.095Z,20.73
